createdAt,value
2023-02-15T00:02:45.205Z,-2.40
2023-02-15T00:05:34.516Z,-2.40
2023-02-15T00:08:21.958Z,-2.30
2023-02-15T00:11:10.251Z,-2.50
2023-02-15T00:13:59.595Z,-2.30
2023-02-15T00:16:47.245Z,-2.60
2023-02-15T00:19:35.422Z,-2.20
2023-02-15T00:22:24.567Z,-2.60
2023-02-15T00:25:12.849Z,-2.30
2023-02-15T00:28:02.194Z,-2.60
2023-02-15T00:30:49.865Z,-2.60
2023-02-15T00:33:37.433Z,-2.60
2023-02-15T00:36:25.339Z,-2.60
2023-02-15T00:39:16.543Z,-2.50
2023-02-15T00:42:04.238Z,-2.70
2023-02-15T00:44:56.507Z,-2.70
2023-02-15T00:47:44.257Z,-2.70
2023-02-15T00:50:32.503Z,-2.70
2023-02-15T00:53:20.398Z,-2.70
2023-02-15T00:56:12.459Z,-2.50
2023-02-15T00:58:59.769Z,-2.70
2023-02-15T01:02:03.130Z,-2.80
2023-02-15T01:04:51.244Z,-2.80
2023-02-15T01:07:43.965Z,-2.80
2023-02-15T01:11:00.155Z,-2.80
2023-02-15T01:13:51.141Z,-2.80
2023-02-15T01:16:40.278Z,-2.60
2023-02-15T01:19:27.686Z,-2.90
2023-02-15T01:22:31.146Z,-2.90
2023-02-15T01:25:27.912Z,-2.70
2023-02-15T01:28:15.911Z,-3.00
2023-02-15T01:31:30.994Z,-3.00
2023-02-15T01:37:25.670Z,-3.10
2023-02-15T01:40:21.738Z,-3.10
2023-02-15T01:43:15.608Z,-3.10
2023-02-15T01:46:04.265Z,-3.10
2023-02-15T01:53:01.148Z,-3.10
2023-02-15T01:56:13.789Z,-3.20
2023-02-15T01:59:09.623Z,-3.20
2023-02-15T02:02:03.988Z,-3.20
2023-02-15T02:05:00.002Z,-3.20
2023-02-15T02:08:39.836Z,-3.30
2023-02-15T02:11:29.151Z,-3.30
2023-02-15T02:14:16.620Z,-3.30
2023-02-15T02:17:11.753Z,-3.30
2023-02-15T02:20:43.412Z,-3.30
2023-02-15T02:23:49.361Z,-3.30
2023-02-15T02:27:20.586Z,-3.40
2023-02-15T02:30:40.330Z,-3.40
2023-02-15T02:33:43.352Z,-3.40
2023-02-15T02:36:37.870Z,-3.40
2023-02-15T02:39:33.067Z,-3.40
2023-02-15T02:42:26.747Z,-3.50
2023-02-15T02:45:18.480Z,-3.50
2023-02-15T02:48:10.018Z,-3.50
2023-02-15T02:50:58.206Z,-3.50
2023-02-15T02:53:44.842Z,-3.60
2023-02-15T02:56:38.313Z,-3.50
2023-02-15T02:59:35.833Z,-3.60
2023-02-15T03:02:27.118Z,-3.60
2023-02-15T03:05:17.301Z,-3.60
2023-02-15T03:08:11.064Z,-3.60
2023-02-15T03:11:01.796Z,-3.70
2023-02-15T03:13:50.839Z,-3.60
2023-02-15T03:16:38.550Z,-3.70
2023-02-15T03:19:29.514Z,-3.70
2023-02-15T03:22:21.187Z,-3.70
2023-02-15T03:25:13.680Z,-3.70
2023-02-15T03:28:04.603Z,-3.80
2023-02-15T03:30:56.745Z,-3.80
2023-02-15T03:33:51.776Z,-3.80
2023-02-15T03:36:45.790Z,-3.80
2023-02-15T03:39:35.990Z,-3.80
2023-02-15T03:42:30.376Z,-3.90
2023-02-15T03:45:25.150Z,-3.80
2023-02-15T03:48:11.988Z,-3.90
2023-02-15T03:51:21.444Z,-3.90
2023-02-15T03:54:10.960Z,-3.80
2023-02-15T03:57:13.152Z,-3.90
2023-02-15T04:00:20.141Z,-3.90
2023-02-15T04:03:13.577Z,-3.90
2023-02-15T04:06:00.828Z,-3.90
2023-02-15T04:09:05.203Z,-3.90
2023-02-15T04:11:52.057Z,-3.90
2023-02-15T04:14:56.806Z,-3.90
2023-02-15T04:17:45.231Z,-3.90
2023-02-15T04:20:49.470Z,-4.00
2023-02-15T04:23:54.032Z,-4.00
2023-02-15T04:26:40.938Z,-4.00
2023-02-15T04:29:28.854Z,-4.00
2023-02-15T04:32:15.543Z,-4.00
2023-02-15T04:35:03.565Z,-4.00
2023-02-15T04:37:50.369Z,-4.00
2023-02-15T04:40:37.146Z,-4.10
2023-02-15T04:43:24.174Z,-4.10
2023-02-15T04:46:10.839Z,-4.10
2023-02-15T04:48:58.342Z,-4.10
2023-02-15T04:51:46.891Z,-4.10
2023-02-15T04:54:33.790Z,-4.10
2023-02-15T04:57:20.604Z,-4.10
2023-02-15T05:00:10.147Z,-4.20
2023-02-15T05:02:57.418Z,-4.20
2023-02-15T05:05:45.291Z,-4.20
2023-02-15T05:08:33.772Z,-4.20
2023-02-15T05:11:20.812Z,-4.20
2023-02-15T05:14:07.811Z,-4.20
2023-02-15T05:16:55.126Z,-4.20
2023-02-15T05:19:41.767Z,-4.20
2023-02-15T05:22:28.745Z,-4.20
2023-02-15T05:25:34.882Z,-4.20
2023-02-15T05:28:21.920Z,-4.30
2023-02-15T05:31:11.903Z,-4.30
2023-02-15T05:33:58.771Z,-4.30
2023-02-15T05:36:45.595Z,-4.20
2023-02-15T05:39:32.665Z,-4.20
2023-02-15T05:42:21.050Z,-4.20
2023-02-15T05:45:09.160Z,-4.20
2023-02-15T05:47:56.206Z,-4.20
2023-02-15T05:50:43.021Z,-4.20
2023-02-15T05:53:30.436Z,-4.20
2023-02-15T05:56:17.654Z,-4.20
2023-02-15T05:59:05.782Z,-4.20
2023-02-15T06:01:52.672Z,-4.30
2023-02-15T06:04:39.621Z,-4.30
2023-02-15T06:07:26.450Z,-4.30
2023-02-15T06:10:13.961Z,-4.30
2023-02-15T06:13:01.137Z,-4.30
2023-02-15T06:15:49.148Z,-4.30
2023-02-15T06:18:36.399Z,-4.30
2023-02-15T06:21:23.144Z,-4.30
2023-02-15T06:24:10.734Z,-4.30
2023-02-15T06:26:57.495Z,-4.30
2023-02-15T06:29:44.537Z,-4.30
2023-02-15T06:32:33.099Z,-4.30
2023-02-15T06:35:19.947Z,-4.20
2023-02-15T06:38:06.517Z,-4.20
2023-02-15T06:40:53.290Z,-4.20
2023-02-15T06:43:41.072Z,-4.20
2023-02-15T06:46:29.327Z,-4.20
2023-02-15T06:49:17.628Z,-4.30
2023-02-15T06:52:04.856Z,-4.20
2023-02-15T06:54:51.615Z,-4.20
2023-02-15T06:57:38.479Z,-4.10
2023-02-15T07:00:25.457Z,-4.10
2023-02-15T07:03:15.035Z,-4.10
2023-02-15T07:06:09.219Z,-4.10
2023-02-15T07:08:56.260Z,-4.00
2023-02-15T07:12:00.854Z,-4.00
2023-02-15T07:14:47.755Z,-3.90
2023-02-15T07:17:36.539Z,-3.90
2023-02-15T07:20:25.156Z,-3.90
2023-02-15T07:23:13.292Z,-3.80
2023-02-15T07:26:00.088Z,-3.70
2023-02-15T07:28:47.121Z,-3.70
2023-02-15T07:31:34.064Z,-3.60
2023-02-15T07:34:20.681Z,-3.50
2023-02-15T07:37:07.637Z,-3.40
2023-02-15T07:39:55.889Z,-3.30
2023-02-15T07:42:42.327Z,-3.30
2023-02-15T07:45:29.688Z,-3.30
2023-02-15T07:48:16.644Z,-3.20
2023-02-15T07:51:05.022Z,-3.00
2023-02-15T07:53:52.773Z,-2.90
2023-02-15T07:56:41.047Z,-2.70
2023-02-15T07:59:28.382Z,-2.60
2023-02-15T08:02:17.510Z,-2.20
2023-02-15T08:05:05.138Z,-1.20
2023-02-15T08:07:52.257Z,-0.20
2023-02-15T08:10:56.255Z,0.80
2023-02-15T08:13:54.700Z,1.80
2023-02-15T08:16:43.135Z,2.90
2023-02-15T08:19:32.933Z,3.20
2023-02-15T08:22:20.305Z,3.70
2023-02-15T08:25:07.545Z,4.50
2023-02-15T08:27:54.733Z,5.70
2023-02-15T08:30:43.171Z,6.80
2023-02-15T08:33:30.542Z,7.40
2023-02-15T08:36:20.014Z,6.50
2023-02-15T08:39:08.312Z,6.30
2023-02-15T08:41:55.445Z,6.10
2023-02-15T08:44:42.382Z,6.20
2023-02-15T08:47:31.081Z,7.10
2023-02-15T08:50:17.901Z,8.00
2023-02-15T08:53:05.069Z,7.90
2023-02-15T08:55:58.239Z,7.00
2023-02-15T08:58:45.220Z,6.30
2023-02-15T09:01:34.152Z,6.40
2023-02-15T09:04:23.689Z,6.60
2023-02-15T09:07:10.724Z,6.90
2023-02-15T09:09:57.845Z,7.10
2023-02-15T09:12:44.909Z,7.30
2023-02-15T09:15:32.149Z,7.80
2023-02-15T09:18:19.295Z,8.80
2023-02-15T09:21:09.863Z,8.70
2023-02-15T09:24:02.089Z,8.60
2023-02-15T09:26:53.082Z,8.20
2023-02-15T09:29:40.338Z,8.40
2023-02-15T09:32:27.818Z,8.50
2023-02-15T09:35:15.009Z,8.90
2023-02-15T09:38:03.302Z,8.50
2023-02-15T09:41:05.951Z,8.60
2023-02-15T09:44:05.546Z,8.60
2023-02-15T09:47:07.972Z,8.60
2023-02-15T09:50:07.356Z,9.10
2023-02-15T09:53:22.465Z,9.50
2023-02-15T09:56:18.627Z,9.60
2023-02-15T09:59:16.902Z,10.00
2023-02-15T10:02:18.394Z,10.10
2023-02-15T10:05:21.928Z,10.00
2023-02-15T10:08:34.113Z,10.40
2023-02-15T10:11:42.929Z,10.40
2023-02-15T10:14:54.625Z,10.70
2023-02-15T10:17:56.933Z,11.00
2023-02-15T10:20:52.201Z,11.30
2023-02-15T10:24:08.827Z,11.50
2023-02-15T10:27:02.053Z,11.90
2023-02-15T10:30:00.430Z,12.30
2023-02-15T10:33:00.423Z,12.70
2023-02-15T10:35:57.196Z,12.50
2023-02-15T10:38:47.022Z,11.80
2023-02-15T10:41:44.778Z,12.10
2023-02-15T10:44:43.979Z,12.70
2023-02-15T10:47:47.153Z,12.90
2023-02-15T10:50:48.704Z,12.70
2023-02-15T10:54:04.530Z,12.90
2023-02-15T10:57:02.573Z,13.10
2023-02-15T11:00:13.883Z,13.60
2023-02-15T11:03:38.950Z,13.90
2023-02-15T11:06:29.557Z,14.10
2023-02-15T11:09:19.336Z,14.10
2023-02-15T11:12:15.785Z,14.60
2023-02-15T11:15:06.357Z,15.80
2023-02-15T11:17:59.571Z,15.50
2023-02-15T11:20:55.495Z,15.20
2023-02-15T11:23:46.645Z,15.10
2023-02-15T11:26:37.112Z,15.30
2023-02-15T11:29:33.498Z,15.60
2023-02-15T11:32:25.341Z,15.80
2023-02-15T11:35:24.842Z,16.20
2023-02-15T11:38:19.633Z,16.20
2023-02-15T11:41:11.882Z,15.90
2023-02-15T11:44:05.791Z,16.10
2023-02-15T11:46:56.727Z,16.50
2023-02-15T11:49:43.828Z,17.20
2023-02-15T11:52:31.180Z,17.60
2023-02-15T11:55:23.362Z,18.00
2023-02-15T11:58:19.010Z,17.70
2023-02-15T12:01:13.898Z,18.20
2023-02-15T12:04:08.277Z,17.60
2023-02-15T12:07:03.408Z,17.90
2023-02-15T12:09:57.330Z,17.20
2023-02-15T12:12:44.014Z,17.60
2023-02-15T12:15:34.108Z,17.70
2023-02-15T12:18:36.615Z,18.60
2023-02-15T12:21:32.527Z,19.00
2023-02-15T12:24:23.294Z,19.00
2023-02-15T12:27:18.766Z,18.90
2023-02-15T12:30:13.622Z,19.40
2023-02-15T12:33:07.897Z,19.90
2023-02-15T12:36:02.028Z,20.30
2023-02-15T12:39:07.212Z,20.10
2023-02-15T12:42:05.183Z,20.10
2023-02-15T12:45:01.428Z,19.00
2023-02-15T12:47:49.012Z,18.70
2023-02-15T12:50:36.117Z,18.70
2023-02-15T12:53:25.200Z,18.90
2023-02-15T12:56:13.606Z,18.90
2023-02-15T12:59:07.698Z,18.90
2023-02-15T13:01:55.945Z,18.80
2023-02-15T13:04:50.768Z,18.80
2023-02-15T13:07:38.800Z,18.60
2023-02-15T13:10:29.480Z,18.60
2023-02-15T13:13:23.735Z,18.50
2023-02-15T13:16:15.506Z,18.30
2023-02-15T13:19:08.249Z,18.00
2023-02-15T13:21:57.802Z,17.70
2023-02-15T13:24:49.277Z,16.80
2023-02-15T13:27:40.616Z,16.60
2023-02-15T13:30:33.783Z,16.40
2023-02-15T13:33:27.555Z,16.10
2023-02-15T13:36:21.708Z,16.10
2023-02-15T13:39:16.501Z,15.70
2023-02-15T13:42:14.637Z,15.50
2023-02-15T13:45:12.349Z,15.70
2023-02-15T13:48:17.539Z,15.90
2023-02-15T13:51:15.107Z,15.90
2023-02-15T13:54:26.636Z,16.00
2023-02-15T13:57:34.549Z,16.00
2023-02-15T14:00:28.116Z,15.90
2023-02-15T14:04:05.243Z,16.10
2023-02-15T14:07:27.264Z,16.10
2023-02-15T14:10:31.583Z,16.10
2023-02-15T14:13:56.300Z,15.80
2023-02-15T14:17:06.289Z,15.40
2023-02-15T14:19:59.842Z,15.40
2023-02-15T14:22:51.952Z,15.40
2023-02-15T14:25:45.013Z,15.40
2023-02-15T14:28:42.358Z,15.20
2023-02-15T14:31:41.982Z,14.90
2023-02-15T14:34:45.726Z,14.90
2023-02-15T14:37:45.321Z,14.80
2023-02-15T14:41:37.534Z,14.50
2023-02-15T14:44:32.313Z,14.10
2023-02-15T14:47:24.319Z,14.20
2023-02-15T14:50:45.107Z,14.10
2023-02-15T14:53:39.435Z,14.00
2023-02-15T14:56:28.612Z,13.70
2023-02-15T14:59:19.221Z,13.50
2023-02-15T15:02:15.904Z,13.40
2023-02-15T15:05:10.573Z,13.20
2023-02-15T15:08:00.932Z,13.00
2023-02-15T15:10:49.462Z,12.70
2023-02-15T15:14:01.523Z,12.70
2023-02-15T15:16:53.823Z,12.70
2023-02-15T15:20:14.781Z,12.60
2023-02-15T15:23:43.530Z,12.50
2023-02-15T15:26:37.940Z,12.30
2023-02-15T15:29:42.711Z,12.30
2023-02-15T15:32:35.563Z,12.10
2023-02-15T15:35:30.487Z,11.80
2023-02-15T15:38:37.676Z,11.80
2023-02-15T15:41:37.776Z,11.60
2023-02-15T15:45:18.585Z,11.50
2023-02-15T15:48:32.042Z,11.20
2023-02-15T15:51:22.301Z,11.10
2023-02-15T15:54:17.489Z,11.00
2023-02-15T15:57:07.575Z,10.90
2023-02-15T15:59:57.244Z,10.70
2023-02-15T16:02:52.486Z,10.30
2023-02-15T16:05:40.573Z,10.00
2023-02-15T16:08:32.826Z,9.60
2023-02-15T16:11:25.444Z,9.40
2023-02-15T16:14:19.120Z,9.10
2023-02-15T16:17:15.682Z,8.90
2023-02-15T16:20:07.298Z,8.70
2023-02-15T16:23:08.523Z,8.60
2023-02-15T16:26:05.032Z,8.60
2023-02-15T16:28:52.800Z,8.50
2023-02-15T16:31:41.458Z,8.30
2023-02-15T16:34:29.193Z,8.00
2023-02-15T16:37:17.909Z,7.80
2023-02-15T16:40:05.337Z,7.60
2023-02-15T16:42:53.116Z,7.50
2023-02-15T16:45:40.211Z,7.20
2023-02-15T16:48:29.636Z,7.10
2023-02-15T16:51:22.772Z,6.90
2023-02-15T16:54:15.626Z,6.70
2023-02-15T16:57:03.691Z,6.50
2023-02-15T16:59:52.388Z,6.40
2023-02-15T17:02:55.669Z,6.20
2023-02-15T17:05:47.801Z,5.90
2023-02-15T17:08:38.009Z,5.60
2023-02-15T17:11:36.577Z,5.60
2023-02-15T17:14:29.082Z,5.40
2023-02-15T17:17:17.631Z,5.10
2023-02-15T17:20:05.362Z,5.00
2023-02-15T17:22:55.112Z,4.80
2023-02-15T17:25:44.255Z,4.80
2023-02-15T17:28:33.861Z,4.70
2023-02-15T17:31:22.827Z,4.70
2023-02-15T17:34:44.647Z,4.40
2023-02-15T17:37:34.790Z,4.30
2023-02-15T17:40:37.288Z,4.10
2023-02-15T17:43:24.473Z,4.10
2023-02-15T17:46:11.822Z,4.00
2023-02-15T17:48:59.361Z,3.80
2023-02-15T17:51:46.451Z,3.70
2023-02-15T17:54:51.113Z,3.60
2023-02-15T17:57:39.882Z,3.50
2023-02-15T18:00:44.595Z,3.40
2023-02-15T18:03:57.900Z,3.40
2023-02-15T18:07:03.045Z,3.20
2023-02-15T18:10:07.449Z,3.20
2023-02-15T18:12:55.788Z,3.10
2023-02-15T18:15:44.561Z,3.00
2023-02-15T18:18:31.357Z,2.90
2023-02-15T18:21:20.586Z,2.70
2023-02-15T18:24:07.925Z,2.70
2023-02-15T18:26:55.703Z,2.60
2023-02-15T18:29:44.464Z,2.50
2023-02-15T18:32:36.558Z,2.40
2023-02-15T18:35:25.886Z,2.40
2023-02-15T18:38:13.114Z,2.20
2023-02-15T18:41:00.584Z,2.10
2023-02-15T18:43:48.990Z,2.00
2023-02-15T18:46:37.427Z,2.10
2023-02-15T18:49:24.616Z,2.10
2023-02-15T18:52:17.312Z,1.90
2023-02-15T18:55:08.053Z,1.80
2023-02-15T18:57:57.225Z,2.10
2023-02-15T19:00:45.533Z,1.70
2023-02-15T19:03:33.849Z,1.70
2023-02-15T19:06:23.181Z,1.70
2023-02-15T19:09:16.279Z,1.50
2023-02-15T19:12:03.688Z,1.40
2023-02-15T19:14:52.972Z,1.40
2023-02-15T19:17:39.748Z,1.40
2023-02-15T19:20:33.230Z,1.30
2023-02-15T19:23:23.563Z,1.10
2023-02-15T19:26:12.113Z,1.10
2023-02-15T19:29:00.687Z,1.00
2023-02-15T19:31:47.742Z,1.00
2023-02-15T19:34:34.854Z,0.90
2023-02-15T19:37:26.578Z,0.80
2023-02-15T19:40:21.553Z,0.90
2023-02-15T19:43:16.497Z,0.80
2023-02-15T19:46:03.704Z,0.70
2023-02-15T19:48:51.862Z,0.60
2023-02-15T19:51:40.578Z,0.70
2023-02-15T19:54:31.889Z,0.70
2023-02-15T19:57:19.757Z,0.60
2023-02-15T20:00:22.253Z,0.60
2023-02-15T20:03:10.564Z,0.50
2023-02-15T20:05:57.937Z,1.10
2023-02-15T20:08:45.537Z,0.30
2023-02-15T20:11:33.867Z,0.50
2023-02-15T20:14:21.175Z,0.30
2023-02-15T20:17:08.413Z,0.20
2023-02-15T20:19:56.235Z,0.20
2023-02-15T20:22:45.422Z,0.10
2023-02-15T20:25:34.236Z,0.50
2023-02-15T20:28:26.980Z,0.00
2023-02-15T20:31:16.595Z,0.10
2023-02-15T20:34:04.289Z,0.10
2023-02-15T20:36:52.571Z,0.00
2023-02-15T20:39:39.321Z,0.00
2023-02-15T20:42:26.410Z,-0.10
2023-02-15T20:45:21.308Z,-0.10
2023-02-15T20:48:08.461Z,-0.10
2023-02-15T20:50:55.981Z,-0.10
2023-02-15T20:53:42.860Z,-0.10
2023-02-15T20:56:32.237Z,-0.10
2023-02-15T20:59:25.672Z,-0.20
2023-02-15T21:02:21.090Z,-0.20
2023-02-15T21:05:20.352Z,-0.10
2023-02-15T21:08:14.163Z,-0.20
2023-02-15T21:11:01.911Z,-0.20
2023-02-15T21:13:50.393Z,-0.10
2023-02-15T21:16:37.639Z,-0.30
2023-02-15T21:19:26.440Z,-0.30
2023-02-15T21:22:14.865Z,-0.30
2023-02-15T21:25:02.736Z,-0.40
2023-02-15T21:27:49.805Z,-0.40
2023-02-15T21:30:37.021Z,-0.40
2023-02-15T21:33:23.735Z,-0.40
2023-02-15T21:36:16.096Z,-0.30
2023-02-15T21:39:03.306Z,-0.40
2023-02-15T21:42:10.066Z,-0.50
2023-02-15T21:45:14.984Z,-0.40
2023-02-15T21:48:02.155Z,-0.60
2023-02-15T21:51:08.433Z,-0.60
2023-02-15T21:53:56.976Z,-0.50
2023-02-15T21:56:44.089Z,-0.70
2023-02-15T21:59:31.552Z,-0.60
2023-02-15T22:02:29.060Z,-0.70
2023-02-15T22:05:18.296Z,-0.70
2023-02-15T22:08:10.492Z,-0.70
2023-02-15T22:10:59.315Z,-0.70
2023-02-15T22:13:46.845Z,-0.70
2023-02-15T22:16:34.027Z,-0.80
2023-02-15T22:19:21.096Z,-0.90
2023-02-15T22:22:08.105Z,-0.90
2023-02-15T22:24:57.318Z,-0.70
2023-02-15T22:27:47.618Z,-0.90
2023-02-15T22:30:37.976Z,-0.90
2023-02-15T22:33:27.565Z,-0.90
2023-02-15T22:36:24.419Z,-1.00
2023-02-15T22:39:11.570Z,-1.10
2023-02-15T22:41:58.819Z,-1.20
2023-02-15T22:44:47.619Z,-1.20
2023-02-15T22:47:37.114Z,-1.20
2023-02-15T22:50:26.828Z,-1.20
2023-02-15T22:53:13.731Z,-1.20
2023-02-15T22:56:06.721Z,-0.90
2023-02-15T22:58:55.977Z,-1.20
2023-02-15T23:01:44.702Z,-1.40
2023-02-15T23:04:32.085Z,-1.30
2023-02-15T23:07:20.747Z,-1.40
2023-02-15T23:10:21.172Z,-1.40
2023-02-15T23:13:25.979Z,-1.40
2023-02-15T23:16:16.562Z,-1.50
2023-02-15T23:19:04.726Z,-1.50
2023-02-15T23:21:51.767Z,-1.60
2023-02-15T23:24:38.847Z,-1.60
2023-02-15T23:27:43.236Z,-1.60
2023-02-15T23:30:30.208Z,-1.60
2023-02-15T23:33:20.044Z,-1.60
2023-02-15T23:36:22.986Z,-1.60
2023-02-15T23:39:28.440Z,-1.60
2023-02-15T23:42:18.517Z,-1.60
2023-02-15T23:45:07.412Z,-1.60
2023-02-15T23:48:12.118Z,-1.70
2023-02-15T23:51:00.376Z,-1.70
2023-02-15T23:53:50.506Z,-1.60
2023-02-15T23:56:37.647Z,-1.60
2023-02-15T23:59:26.659Z,-1.80
